sensor_id;sensor_type;location;lat;lon;timestamp;P1;durP1;ratioP1;P2;durP2;ratioP2
21235;SDS011;10775;42.678;26.324;2023-02-11T00:00:50;5.13;;;2.25;;
21235;SDS011;10775;42.678;26.324;2023-02-11T00:03:15;3.60;;;2.00;;
21235;SDS011;10775;42.678;26.324;2023-02-11T00:05:41;5.32;;;2.58;;
21235;SDS011;10775;42.678;26.324;2023-02-11T00:08:06;5.53;;;2.33;;
21235;SDS011;10775;42.678;26.324;2023-02-11T00:10:32;3.20;;;1.83;;
21235;SDS011;10775;42.678;26.324;2023-02-11T00:12:57;4.55;;;2.10;;
21235;SDS011;10775;42.678;26.324;2023-02-11T00:15:23;4.60;;;2.08;;
21235;SDS011;10775;42.678;26.324;2023-02-11T00:17:48;4.00;;;2.33;;
21235;SDS011;10775;42.678;26.324;2023-02-11T00:20:14;4.88;;;2.38;;
21235;SDS011;10775;42.678;26.324;2023-02-11T00:22:39;6.05;;;2.72;;
21235;SDS011;10775;42.678;26.324;2023-02-11T00:25:05;5.22;;;2.25;;
21235;SDS011;10775;42.678;26.324;2023-02-11T00:27:30;5.63;;;2.65;;
21235;SDS011;10775;42.678;26.324;2023-02-11T00:29:56;3.63;;;1.98;;
21235;SDS011;10775;42.678;26.324;2023-02-11T00:32:21;4.45;;;1.77;;
21235;SDS011;10775;42.678;26.324;2023-02-11T00:34:46;3.88;;;2.05;;
21235;SDS011;10775;42.678;26.324;2023-02-11T00:37:16;5.23;;;2.60;;
21235;SDS011;10775;42.678;26.324;2023-02-11T00:39:41;4.80;;;2.30;;
21235;SDS011;10775;42.678;26.324;2023-02-11T00:42:07;3.83;;;2.60;;
21235;SDS011;10775;42.678;26.324;2023-02-11T00:44:33;3.28;;;2.03;;
21235;SDS011;10775;42.678;26.324;2023-02-11T00:46:58;4.60;;;2.17;;
21235;SDS011;10775;42.678;26.324;2023-02-11T00:49:24;4.55;;;2.58;;
21235;SDS011;10775;42.678;26.324;2023-02-11T00:51:49;4.85;;;2.40;;
21235;SDS011;10775;42.678;26.324;2023-02-11T00:54:14;5.05;;;2.30;;
21235;SDS011;10775;42.678;26.324;2023-02-11T00:56:40;3.55;;;1.58;;
21235;SDS011;10775;42.678;26.324;2023-02-11T00:59:05;3.10;;;1.75;;
21235;SDS011;10775;42.678;26.324;2023-02-11T01:01:31;2.95;;;1.63;;
21235;SDS011;10775;42.678;26.324;2023-02-11T01:03:56;5.68;;;2.33;;
21235;SDS011;10775;42.678;26.324;2023-02-11T01:06:22;2.92;;;1.58;;
21235;SDS011;10775;42.678;26.324;2023-02-11T01:08:47;2.75;;;1.23;;
21235;SDS011;10775;42.678;26.324;2023-02-11T01:11:15;4.00;;;2.03;;
21235;SDS011;10775;42.678;26.324;2023-02-11T01:13:42;3.30;;;1.90;;
21235;SDS011;10775;42.678;26.324;2023-02-11T01:16:09;4.85;;;1.95;;
21235;SDS011;10775;42.678;26.324;2023-02-11T01:18:35;3.60;;;1.75;;
21235;SDS011;10775;42.678;26.324;2023-02-11T01:21:01;3.80;;;1.75;;
21235;SDS011;10775;42.678;26.324;2023-02-11T01:23:26;3.65;;;1.65;;
21235;SDS011;10775;42.678;26.324;2023-02-11T01:25:52;5.60;;;2.05;;
21235;SDS011;10775;42.678;26.324;2023-02-11T01:28:28;2.88;;;1.80;;
21235;SDS011;10775;42.678;26.324;2023-02-11T01:30:54;3.50;;;1.65;;
21235;SDS011;10775;42.678;26.324;2023-02-11T01:33:20;4.55;;;2.10;;
21235;SDS011;10775;42.678;26.324;2023-02-11T01:35:46;3.10;;;1.80;;
21235;SDS011;10775;42.678;26.324;2023-02-11T01:38:17;4.18;;;2.00;;
21235;SDS011;10775;42.678;26.324;2023-02-11T01:43:25;3.17;;;1.55;;
21235;SDS011;10775;42.678;26.324;2023-02-11T01:45:54;4.00;;;1.45;;
21235;SDS011;10775;42.678;26.324;2023-02-11T01:48:43;4.05;;;2.05;;
21235;SDS011;10775;42.678;26.324;2023-02-11T01:53:46;3.85;;;1.80;;
21235;SDS011;10775;42.678;26.324;2023-02-11T01:56:33;4.65;;;1.70;;
21235;SDS011;10775;42.678;26.324;2023-02-11T01:59:23;4.07;;;2.03;;
21235;SDS011;10775;42.678;26.324;2023-02-11T02:01:57;4.13;;;1.80;;
21235;SDS011;10775;42.678;26.324;2023-02-11T02:04:31;2.40;;;1.60;;
21235;SDS011;10775;42.678;26.324;2023-02-11T02:07:03;3.17;;;1.77;;
21235;SDS011;10775;42.678;26.324;2023-02-11T02:09:40;3.83;;;1.77;;
21235;SDS011;10775;42.678;26.324;2023-02-11T02:12:09;4.45;;;2.00;;
21235;SDS011;10775;42.678;26.324;2023-02-11T02:14:38;4.10;;;1.70;;
21235;SDS011;10775;42.678;26.324;2023-02-11T02:17:05;2.45;;;1.50;;
21235;SDS011;10775;42.678;26.324;2023-02-11T02:31:18;2.53;;;1.40;;
21235;SDS011;10775;42.678;26.324;2023-02-11T02:33:55;4.15;;;2.00;;
21235;SDS011;10775;42.678;26.324;2023-02-11T02:39:10;3.90;;;1.95;;
21235;SDS011;10775;42.678;26.324;2023-02-11T02:41:41;4.13;;;1.95;;
21235;SDS011;10775;42.678;26.324;2023-02-11T02:44:09;4.40;;;2.30;;
21235;SDS011;10775;42.678;26.324;2023-02-11T02:46:34;4.10;;;1.75;;
21235;SDS011;10775;42.678;26.324;2023-02-11T02:49:01;4.18;;;1.92;;
21235;SDS011;10775;42.678;26.324;2023-02-11T03:07:57;5.57;;;2.30;;
21235;SDS011;10775;42.678;26.324;2023-02-11T03:10:30;3.95;;;1.70;;
21235;SDS011;10775;42.678;26.324;2023-02-11T03:13:00;3.40;;;1.85;;
21235;SDS011;10775;42.678;26.324;2023-02-11T03:15:29;5.95;;;2.00;;
21235;SDS011;10775;42.678;26.324;2023-02-11T03:17:59;3.92;;;2.00;;
21235;SDS011;10775;42.678;26.324;2023-02-11T03:20:26;2.67;;;1.35;;
21235;SDS011;10775;42.678;26.324;2023-02-11T03:22:56;4.30;;;1.83;;
21235;SDS011;10775;42.678;26.324;2023-02-11T03:25:27;3.08;;;1.60;;
21235;SDS011;10775;42.678;26.324;2023-02-11T03:28:06;4.10;;;1.75;;
21235;SDS011;10775;42.678;26.324;2023-02-11T03:30:44;8.23;;;3.05;;
21235;SDS011;10775;42.678;26.324;2023-02-11T03:33:18;2.85;;;1.60;;
21235;SDS011;10775;42.678;26.324;2023-02-11T03:35:58;3.60;;;1.75;;
21235;SDS011;10775;42.678;26.324;2023-02-11T03:38:32;3.50;;;1.55;;
21235;SDS011;10775;42.678;26.324;2023-02-11T03:41:02;2.70;;;1.40;;
21235;SDS011;10775;42.678;26.324;2023-02-11T03:43:35;3.22;;;1.52;;
21235;SDS011;10775;42.678;26.324;2023-02-11T03:46:05;3.20;;;1.95;;
21235;SDS011;10775;42.678;26.324;2023-02-11T03:48:34;2.97;;;1.50;;
21235;SDS011;10775;42.678;26.324;2023-02-11T03:51:04;5.28;;;1.95;;
21235;SDS011;10775;42.678;26.324;2023-02-11T03:53:31;3.63;;;1.50;;
21235;SDS011;10775;42.678;26.324;2023-02-11T03:55:59;3.95;;;1.77;;
21235;SDS011;10775;42.678;26.324;2023-02-11T03:58:28;2.20;;;1.20;;
21235;SDS011;10775;42.678;26.324;2023-02-11T04:00:54;3.65;;;1.65;;
21235;SDS011;10775;42.678;26.324;2023-02-11T04:03:20;3.78;;;1.63;;
21235;SDS011;10775;42.678;26.324;2023-02-11T04:05:45;3.65;;;1.27;;
21235;SDS011;10775;42.678;26.324;2023-02-11T04:08:11;3.10;;;1.58;;
21235;SDS011;10775;42.678;26.324;2023-02-11T04:10:36;3.75;;;1.73;;
21235;SDS011;10775;42.678;26.324;2023-02-11T04:13:02;3.67;;;1.60;;
21235;SDS011;10775;42.678;26.324;2023-02-11T04:15:27;5.53;;;2.13;;
21235;SDS011;10775;42.678;26.324;2023-02-11T04:17:52;4.80;;;2.30;;
21235;SDS011;10775;42.678;26.324;2023-02-11T04:20:18;3.22;;;1.80;;
21235;SDS011;10775;42.678;26.324;2023-02-11T04:22:44;5.10;;;2.80;;
21235;SDS011;10775;42.678;26.324;2023-02-11T04:25:09;4.15;;;1.77;;
21235;SDS011;10775;42.678;26.324;2023-02-11T04:27:35;3.13;;;1.65;;
21235;SDS011;10775;42.678;26.324;2023-02-11T04:30:01;4.72;;;2.08;;
21235;SDS011;10775;42.678;26.324;2023-02-11T04:32:26;5.75;;;2.67;;
21235;SDS011;10775;42.678;26.324;2023-02-11T04:34:52;6.30;;;2.78;;
21235;SDS011;10775;42.678;26.324;2023-02-11T04:37:18;5.90;;;3.20;;
21235;SDS011;10775;42.678;26.324;2023-02-11T04:39:44;5.88;;;2.25;;
21235;SDS011;10775;42.678;26.324;2023-02-11T04:42:09;9.02;;;3.10;;
21235;SDS011;10775;42.678;26.324;2023-02-11T04:44:35;5.53;;;2.53;;
21235;SDS011;10775;42.678;26.324;2023-02-11T04:47:00;4.35;;;2.15;;
21235;SDS011;10775;42.678;26.324;2023-02-11T04:49:26;5.78;;;2.80;;
21235;SDS011;10775;42.678;26.324;2023-02-11T04:51:51;6.20;;;2.42;;
21235;SDS011;10775;42.678;26.324;2023-02-11T04:54:17;4.43;;;2.25;;
21235;SDS011;10775;42.678;26.324;2023-02-11T04:56:42;5.47;;;2.25;;
21235;SDS011;10775;42.678;26.324;2023-02-11T04:59:08;3.85;;;2.25;;
21235;SDS011;10775;42.678;26.324;2023-02-11T05:01:33;5.95;;;2.42;;
21235;SDS011;10775;42.678;26.324;2023-02-11T05:03:59;4.95;;;1.85;;
21235;SDS011;10775;42.678;26.324;2023-02-11T05:06:25;4.15;;;2.17;;
21235;SDS011;10775;42.678;26.324;2023-02-11T05:08:50;4.30;;;2.22;;
21235;SDS011;10775;42.678;26.324;2023-02-11T05:11:17;4.50;;;1.92;;
21235;SDS011;10775;42.678;26.324;2023-02-11T05:13:45;4.25;;;2.13;;
21235;SDS011;10775;42.678;26.324;2023-02-11T05:16:11;4.32;;;2.30;;
21235;SDS011;10775;42.678;26.324;2023-02-11T05:18:37;6.10;;;2.53;;
21235;SDS011;10775;42.678;26.324;2023-02-11T05:21:07;4.38;;;2.28;;
21235;SDS011;10775;42.678;26.324;2023-02-11T05:23:33;6.88;;;2.50;;
21235;SDS011;10775;42.678;26.324;2023-02-11T05:25:59;4.20;;;2.40;;
21235;SDS011;10775;42.678;26.324;2023-02-11T05:28:25;6.40;;;2.60;;
21235;SDS011;10775;42.678;26.324;2023-02-11T05:30:50;7.72;;;3.25;;
21235;SDS011;10775;42.678;26.324;2023-02-11T05:33:16;6.40;;;3.10;;
21235;SDS011;10775;42.678;26.324;2023-02-11T05:35:41;7.57;;;3.00;;
21235;SDS011;10775;42.678;26.324;2023-02-11T05:38:06;5.28;;;2.58;;
21235;SDS011;10775;42.678;26.324;2023-02-11T05:40:32;6.50;;;3.08;;
21235;SDS011;10775;42.678;26.324;2023-02-11T05:42:57;7.10;;;2.72;;
21235;SDS011;10775;42.678;26.324;2023-02-11T05:45:23;6.68;;;3.28;;
21235;SDS011;10775;42.678;26.324;2023-02-11T05:47:48;7.70;;;3.05;;
21235;SDS011;10775;42.678;26.324;2023-02-11T05:50:14;6.38;;;2.90;;
21235;SDS011;10775;42.678;26.324;2023-02-11T05:52:39;6.55;;;3.13;;
21235;SDS011;10775;42.678;26.324;2023-02-11T05:55:05;7.07;;;3.13;;
21235;SDS011;10775;42.678;26.324;2023-02-11T05:57:30;7.70;;;3.13;;
21235;SDS011;10775;42.678;26.324;2023-02-11T05:59:56;9.80;;;4.13;;
21235;SDS011;10775;42.678;26.324;2023-02-11T06:02:21;10.80;;;4.82;;
21235;SDS011;10775;42.678;26.324;2023-02-11T06:04:47;7.68;;;4.15;;
21235;SDS011;10775;42.678;26.324;2023-02-11T06:07:12;8.07;;;3.85;;
21235;SDS011;10775;42.678;26.324;2023-02-11T06:09:38;7.88;;;3.83;;
21235;SDS011;10775;42.678;26.324;2023-02-11T06:12:03;8.30;;;3.53;;
21235;SDS011;10775;42.678;26.324;2023-02-11T06:14:30;7.05;;;3.13;;
21235;SDS011;10775;42.678;26.324;2023-02-11T06:19:24;6.45;;;3.28;;
21235;SDS011;10775;42.678;26.324;2023-02-11T06:21:50;7.90;;;3.67;;
21235;SDS011;10775;42.678;26.324;2023-02-11T06:24:15;8.18;;;4.15;;
21235;SDS011;10775;42.678;26.324;2023-02-11T06:26:41;8.88;;;3.90;;
21235;SDS011;10775;42.678;26.324;2023-02-11T06:29:06;9.00;;;3.70;;
21235;SDS011;10775;42.678;26.324;2023-02-11T06:31:32;8.23;;;3.75;;
21235;SDS011;10775;42.678;26.324;2023-02-11T06:33:57;8.57;;;3.92;;
21235;SDS011;10775;42.678;26.324;2023-02-11T06:36:23;10.40;;;4.68;;
21235;SDS011;10775;42.678;26.324;2023-02-11T06:38:49;9.23;;;4.32;;
21235;SDS011;10775;42.678;26.324;2023-02-11T06:41:16;8.80;;;3.97;;
21235;SDS011;10775;42.678;26.324;2023-02-11T06:43:45;8.87;;;4.20;;
21235;SDS011;10775;42.678;26.324;2023-02-11T06:46:11;9.10;;;4.78;;
21235;SDS011;10775;42.678;26.324;2023-02-11T06:48:37;10.88;;;4.97;;
21235;SDS011;10775;42.678;26.324;2023-02-11T06:51:03;11.13;;;4.80;;
21235;SDS011;10775;42.678;26.324;2023-02-11T06:53:31;10.25;;;4.57;;
21235;SDS011;10775;42.678;26.324;2023-02-11T06:56:04;9.47;;;4.77;;
21235;SDS011;10775;42.678;26.324;2023-02-11T06:58:34;10.13;;;5.05;;
21235;SDS011;10775;42.678;26.324;2023-02-11T07:01:03;10.32;;;4.70;;
21235;SDS011;10775;42.678;26.324;2023-02-11T07:03:31;12.85;;;5.13;;
21235;SDS011;10775;42.678;26.324;2023-02-11T07:08:27;5.88;;;3.40;;
21235;SDS011;10775;42.678;26.324;2023-02-11T07:10:52;12.77;;;5.80;;
21235;SDS011;10775;42.678;26.324;2023-02-11T07:13:18;9.13;;;4.53;;
21235;SDS011;10775;42.678;26.324;2023-02-11T07:15:43;22.98;;;9.95;;
21235;SDS011;10775;42.678;26.324;2023-02-11T07:18:08;20.38;;;9.63;;
21235;SDS011;10775;42.678;26.324;2023-02-11T07:20:35;19.58;;;10.20;;
21235;SDS011;10775;42.678;26.324;2023-02-11T07:23:01;20.25;;;9.25;;
21235;SDS011;10775;42.678;26.324;2023-02-11T07:25:27;14.20;;;6.85;;
21235;SDS011;10775;42.678;26.324;2023-02-11T07:27:52;15.75;;;7.90;;
21235;SDS011;10775;42.678;26.324;2023-02-11T07:30:18;11.57;;;6.20;;
21235;SDS011;10775;42.678;26.324;2023-02-11T07:32:43;13.63;;;6.35;;
21235;SDS011;10775;42.678;26.324;2023-02-11T07:35:09;13.77;;;6.22;;
21235;SDS011;10775;42.678;26.324;2023-02-11T07:37:34;14.77;;;7.18;;
21235;SDS011;10775;42.678;26.324;2023-02-11T07:40:00;14.02;;;7.20;;
21235;SDS011;10775;42.678;26.324;2023-02-11T07:42:25;16.23;;;7.40;;
21235;SDS011;10775;42.678;26.324;2023-02-11T07:44:51;20.75;;;8.38;;
21235;SDS011;10775;42.678;26.324;2023-02-11T07:47:16;17.60;;;7.43;;
21235;SDS011;10775;42.678;26.324;2023-02-11T07:49:42;19.80;;;8.88;;
21235;SDS011;10775;42.678;26.324;2023-02-11T07:52:07;14.82;;;6.22;;
21235;SDS011;10775;42.678;26.324;2023-02-11T07:54:32;15.02;;;6.70;;
21235;SDS011;10775;42.678;26.324;2023-02-11T07:56:58;13.38;;;6.10;;
21235;SDS011;10775;42.678;26.324;2023-02-11T07:59:23;15.57;;;6.68;;
21235;SDS011;10775;42.678;26.324;2023-02-11T08:01:49;18.95;;;7.70;;
21235;SDS011;10775;42.678;26.324;2023-02-11T08:04:15;14.90;;;7.03;;
21235;SDS011;10775;42.678;26.324;2023-02-11T08:06:41;23.15;;;7.93;;
21235;SDS011;10775;42.678;26.324;2023-02-11T08:09:08;20.35;;;10.05;;
21235;SDS011;10775;42.678;26.324;2023-02-11T08:11:38;22.45;;;10.80;;
21235;SDS011;10775;42.678;26.324;2023-02-11T08:14:04;16.85;;;7.97;;
21235;SDS011;10775;42.678;26.324;2023-02-11T08:16:31;17.33;;;7.13;;
21235;SDS011;10775;42.678;26.324;2023-02-11T08:18:59;20.15;;;9.20;;
21235;SDS011;10775;42.678;26.324;2023-02-11T08:21:26;14.07;;;6.53;;
21235;SDS011;10775;42.678;26.324;2023-02-11T08:23:53;16.75;;;6.95;;
21235;SDS011;10775;42.678;26.324;2023-02-11T08:26:20;15.82;;;6.95;;
21235;SDS011;10775;42.678;26.324;2023-02-11T08:28:48;20.75;;;9.60;;
21235;SDS011;10775;42.678;26.324;2023-02-11T08:31:18;14.35;;;6.70;;
21235;SDS011;10775;42.678;26.324;2023-02-11T08:33:48;22.83;;;9.20;;
21235;SDS011;10775;42.678;26.324;2023-02-11T08:36:15;16.77;;;8.65;;
21235;SDS011;10775;42.678;26.324;2023-02-11T08:38:43;15.55;;;6.32;;
21235;SDS011;10775;42.678;26.324;2023-02-11T08:41:09;14.75;;;6.85;;
21235;SDS011;10775;42.678;26.324;2023-02-11T08:43:35;14.70;;;7.03;;
21235;SDS011;10775;42.678;26.324;2023-02-11T08:46:05;15.75;;;8.15;;
21235;SDS011;10775;42.678;26.324;2023-02-11T08:48:31;17.42;;;7.95;;
21235;SDS011;10775;42.678;26.324;2023-02-11T08:50:57;12.00;;;5.22;;
21235;SDS011;10775;42.678;26.324;2023-02-11T08:53:23;17.05;;;6.57;;
21235;SDS011;10775;42.678;26.324;2023-02-11T08:55:52;17.60;;;7.05;;
21235;SDS011;10775;42.678;26.324;2023-02-11T08:58:19;11.20;;;4.43;;
21235;SDS011;10775;42.678;26.324;2023-02-11T09:00:45;15.10;;;6.32;;
21235;SDS011;10775;42.678;26.324;2023-02-11T09:03:11;14.18;;;5.85;;
21235;SDS011;10775;42.678;26.324;2023-02-11T09:05:44;14.05;;;6.03;;
21235;SDS011;10775;42.678;26.324;2023-02-11T09:08:12;11.80;;;5.22;;
21235;SDS011;10775;42.678;26.324;2023-02-11T09:10:38;11.10;;;5.25;;
21235;SDS011;10775;42.678;26.324;2023-02-11T09:13:04;10.90;;;4.43;;
21235;SDS011;10775;42.678;26.324;2023-02-11T09:15:30;14.15;;;5.53;;
21235;SDS011;10775;42.678;26.324;2023-02-11T09:17:56;10.63;;;4.65;;
21235;SDS011;10775;42.678;26.324;2023-02-11T09:20:22;12.70;;;5.07;;
21235;SDS011;10775;42.678;26.324;2023-02-11T09:22:47;11.60;;;5.63;;
21235;SDS011;10775;42.678;26.324;2023-02-11T09:25:13;10.43;;;4.65;;
21235;SDS011;10775;42.678;26.324;2023-02-11T09:27:38;10.75;;;4.28;;
21235;SDS011;10775;42.678;26.324;2023-02-11T09:30:04;10.00;;;5.22;;
21235;SDS011;10775;42.678;26.324;2023-02-11T09:32:30;9.88;;;4.88;;
21235;SDS011;10775;42.678;26.324;2023-02-11T09:34:55;12.25;;;5.20;;
21235;SDS011;10775;42.678;26.324;2023-02-11T09:37:21;10.68;;;4.43;;
21235;SDS011;10775;42.678;26.324;2023-02-11T09:39:46;12.60;;;5.38;;
21235;SDS011;10775;42.678;26.324;2023-02-11T09:42:23;13.68;;;5.47;;
21235;SDS011;10775;42.678;26.324;2023-02-11T09:44:57;13.07;;;5.40;;
21235;SDS011;10775;42.678;26.324;2023-02-11T09:47:32;11.27;;;5.70;;
21235;SDS011;10775;42.678;26.324;2023-02-11T09:55:16;7.13;;;3.15;;
21235;SDS011;10775;42.678;26.324;2023-02-11T09:57:45;10.65;;;5.28;;
21235;SDS011;10775;42.678;26.324;2023-02-11T10:00:18;11.38;;;4.53;;
21235;SDS011;10775;42.678;26.324;2023-02-11T10:02:50;11.48;;;5.38;;
21235;SDS011;10775;42.678;26.324;2023-02-11T10:05:25;12.27;;;5.28;;
21235;SDS011;10775;42.678;26.324;2023-02-11T10:10:58;18.38;;;8.00;;
21235;SDS011;10775;42.678;26.324;2023-02-11T10:16:09;5.78;;;2.75;;
21235;SDS011;10775;42.678;26.324;2023-02-11T10:21:17;12.63;;;5.03;;
21235;SDS011;10775;42.678;26.324;2023-02-11T10:23:53;11.48;;;5.32;;
21235;SDS011;10775;42.678;26.324;2023-02-11T10:26:21;12.57;;;5.55;;
21235;SDS011;10775;42.678;26.324;2023-02-11T10:28:48;16.92;;;6.70;;
21235;SDS011;10775;42.678;26.324;2023-02-11T10:31:24;14.07;;;6.50;;
21235;SDS011;10775;42.678;26.324;2023-02-11T10:33:59;10.75;;;4.88;;
21235;SDS011;10775;42.678;26.324;2023-02-11T10:36:27;11.52;;;5.07;;
21235;SDS011;10775;42.678;26.324;2023-02-11T10:38:54;11.00;;;5.45;;
21235;SDS011;10775;42.678;26.324;2023-02-11T10:41:26;13.65;;;5.80;;
21235;SDS011;10775;42.678;26.324;2023-02-11T10:44:01;10.45;;;4.65;;
21235;SDS011;10775;42.678;26.324;2023-02-11T10:46:31;12.77;;;5.45;;
21235;SDS011;10775;42.678;26.324;2023-02-11T10:49:00;11.85;;;5.45;;
21235;SDS011;10775;42.678;26.324;2023-02-11T10:51:31;10.90;;;5.25;;
21235;SDS011;10775;42.678;26.324;2023-02-11T10:54:19;12.07;;;4.95;;
21235;SDS011;10775;42.678;26.324;2023-02-11T10:56:46;12.93;;;5.57;;
21235;SDS011;10775;42.678;26.324;2023-02-11T10:59:33;9.57;;;4.10;;
21235;SDS011;10775;42.678;26.324;2023-02-11T11:02:23;10.75;;;5.40;;
21235;SDS011;10775;42.678;26.324;2023-02-11T11:04:59;13.25;;;5.88;;
21235;SDS011;10775;42.678;26.324;2023-02-11T11:07:28;13.13;;;4.57;;
21235;SDS011;10775;42.678;26.324;2023-02-11T11:10:07;11.25;;;5.07;;
21235;SDS011;10775;42.678;26.324;2023-02-11T11:12:51;10.70;;;5.22;;
21235;SDS011;10775;42.678;26.324;2023-02-11T11:17:44;7.78;;;3.72;;
21235;SDS011;10775;42.678;26.324;2023-02-11T11:22:53;10.90;;;5.00;;
21235;SDS011;10775;42.678;26.324;2023-02-11T11:25:34;8.10;;;3.90;;
21235;SDS011;10775;42.678;26.324;2023-02-11T11:28:03;11.18;;;4.75;;
21235;SDS011;10775;42.678;26.324;2023-02-11T11:30:33;8.55;;;4.60;;
21235;SDS011;10775;42.678;26.324;2023-02-11T11:33:14;11.85;;;5.50;;
21235;SDS011;10775;42.678;26.324;2023-02-11T11:38:27;8.18;;;4.05;;
21235;SDS011;10775;42.678;26.324;2023-02-11T11:41:16;9.20;;;4.25;;
21235;SDS011;10775;42.678;26.324;2023-02-11T11:46:51;10.73;;;4.78;;
21235;SDS011;10775;42.678;26.324;2023-02-11T11:52:53;13.77;;;4.82;;
21235;SDS011;10775;42.678;26.324;2023-02-11T11:55:26;18.65;;;6.70;;
21235;SDS011;10775;42.678;26.324;2023-02-11T11:57:56;9.10;;;4.10;;
21235;SDS011;10775;42.678;26.324;2023-02-11T12:00:27;7.57;;;2.65;;
21235;SDS011;10775;42.678;26.324;2023-02-11T12:03:22;10.27;;;4.88;;
21235;SDS011;10775;42.678;26.324;2023-02-11T12:09:52;9.02;;;3.92;;
21235;SDS011;10775;42.678;26.324;2023-02-11T12:31:04;15.18;;;6.15;;
21235;SDS011;10775;42.678;26.324;2023-02-11T12:59:18;9.23;;;4.72;;
21235;SDS011;10775;42.678;26.324;2023-02-11T13:01:57;10.15;;;4.35;;
21235;SDS011;10775;42.678;26.324;2023-02-11T13:04:35;7.85;;;4.15;;
21235;SDS011;10775;42.678;26.324;2023-02-11T13:07:14;7.47;;;3.80;;
21235;SDS011;10775;42.678;26.324;2023-02-11T13:09:49;13.48;;;6.43;;
21235;SDS011;10775;42.678;26.324;2023-02-11T13:12:19;12.20;;;5.97;;
21235;SDS011;10775;42.678;26.324;2023-02-11T13:15:06;11.27;;;4.65;;
21235;SDS011;10775;42.678;26.324;2023-02-11T13:17:42;10.45;;;4.82;;
21235;SDS011;10775;42.678;26.324;2023-02-11T13:23:12;30.38;;;7.65;;
21235;SDS011;10775;42.678;26.324;2023-02-11T13:31:16;13.35;;;4.97;;
21235;SDS011;10775;42.678;26.324;2023-02-11T13:33:45;19.48;;;7.05;;
21235;SDS011;10775;42.678;26.324;2023-02-11T13:36:18;8.98;;;4.45;;
21235;SDS011;10775;42.678;26.324;2023-02-11T13:38:53;11.75;;;4.20;;
21235;SDS011;10775;42.678;26.324;2023-02-11T13:41:37;11.88;;;5.65;;
21235;SDS011;10775;42.678;26.324;2023-02-11T13:44:16;11.45;;;5.75;;
21235;SDS011;10775;42.678;26.324;2023-02-11T13:46:53;9.80;;;5.47;;
21235;SDS011;10775;42.678;26.324;2023-02-11T13:49:26;8.90;;;4.10;;
21235;SDS011;10775;42.678;26.324;2023-02-11T13:51:55;11.90;;;5.72;;
21235;SDS011;10775;42.678;26.324;2023-02-11T13:54:55;13.00;;;5.47;;
21235;SDS011;10775;42.678;26.324;2023-02-11T13:59:44;14.15;;;5.80;;
21235;SDS011;10775;42.678;26.324;2023-02-11T14:16:03;9.45;;;4.63;;
21235;SDS011;10775;42.678;26.324;2023-02-11T14:43:38;11.52;;;5.80;;
21235;SDS011;10775;42.678;26.324;2023-02-11T14:46:00;7.70;;;4.20;;
21235;SDS011;10775;42.678;26.324;2023-02-11T14:48:28;8.93;;;3.92;;
21235;SDS011;10775;42.678;26.324;2023-02-11T14:53:31;11.55;;;5.55;;
21235;SDS011;10775;42.678;26.324;2023-02-11T14:55:58;8.30;;;3.25;;
21235;SDS011;10775;42.678;26.324;2023-02-11T14:58:25;9.05;;;3.83;;
21235;SDS011;10775;42.678;26.324;2023-02-11T15:06:00;7.45;;;2.97;;
21235;SDS011;10775;42.678;26.324;2023-02-11T15:08:49;8.40;;;4.00;;
21235;SDS011;10775;42.678;26.324;2023-02-11T15:11:18;5.68;;;2.90;;
21235;SDS011;10775;42.678;26.324;2023-02-11T15:13:46;5.85;;;2.70;;
21235;SDS011;10775;42.678;26.324;2023-02-11T15:16:18;8.02;;;3.28;;
21235;SDS011;10775;42.678;26.324;2023-02-11T15:18:50;6.95;;;3.00;;
21235;SDS011;10775;42.678;26.324;2023-02-11T15:21:28;6.65;;;3.67;;
21235;SDS011;10775;42.678;26.324;2023-02-11T15:23:58;5.50;;;2.58;;
21235;SDS011;10775;42.678;26.324;2023-02-11T15:26:26;12.40;;;5.47;;
21235;SDS011;10775;42.678;26.324;2023-02-11T15:28:52;16.50;;;7.05;;
21235;SDS011;10775;42.678;26.324;2023-02-11T15:31:19;11.00;;;5.15;;
21235;SDS011;10775;42.678;26.324;2023-02-11T15:33:47;10.17;;;5.63;;
21235;SDS011;10775;42.678;26.324;2023-02-11T15:36:13;11.98;;;6.75;;
21235;SDS011;10775;42.678;26.324;2023-02-11T15:38:39;13.75;;;7.43;;
21235;SDS011;10775;42.678;26.324;2023-02-11T15:41:05;16.40;;;7.90;;
21235;SDS011;10775;42.678;26.324;2023-02-11T15:46:10;18.33;;;9.45;;
21235;SDS011;10775;42.678;26.324;2023-02-11T15:48:41;21.40;;;9.02;;
21235;SDS011;10775;42.678;26.324;2023-02-11T15:53:57;18.90;;;9.50;;
21235;SDS011;10775;42.678;26.324;2023-02-11T15:56:26;25.80;;;11.52;;
21235;SDS011;10775;42.678;26.324;2023-02-11T15:58:56;19.98;;;8.65;;
21235;SDS011;10775;42.678;26.324;2023-02-11T16:01:32;17.92;;;7.88;;
21235;SDS011;10775;42.678;26.324;2023-02-11T16:04:00;17.55;;;8.35;;
21235;SDS011;10775;42.678;26.324;2023-02-11T16:06:37;16.05;;;7.38;;
21235;SDS011;10775;42.678;26.324;2023-02-11T16:09:29;13.80;;;7.10;;
21235;SDS011;10775;42.678;26.324;2023-02-11T16:11:57;16.30;;;8.35;;
21235;SDS011;10775;42.678;26.324;2023-02-11T16:17:08;18.75;;;10.65;;
21235;SDS011;10775;42.678;26.324;2023-02-11T16:19:40;20.75;;;10.48;;
21235;SDS011;10775;42.678;26.324;2023-02-11T16:22:09;16.33;;;7.75;;
21235;SDS011;10775;42.678;26.324;2023-02-11T16:24:39;16.05;;;7.95;;
21235;SDS011;10775;42.678;26.324;2023-02-11T16:27:07;14.23;;;7.75;;
21235;SDS011;10775;42.678;26.324;2023-02-11T16:29:46;17.93;;;8.90;;
21235;SDS011;10775;42.678;26.324;2023-02-11T16:32:18;15.75;;;7.57;;
21235;SDS011;10775;42.678;26.324;2023-02-11T16:34:45;14.50;;;7.30;;
21235;SDS011;10775;42.678;26.324;2023-02-11T16:37:11;15.23;;;7.22;;
21235;SDS011;10775;42.678;26.324;2023-02-11T16:39:36;14.88;;;7.10;;
21235;SDS011;10775;42.678;26.324;2023-02-11T16:42:02;15.82;;;7.20;;
21235;SDS011;10775;42.678;26.324;2023-02-11T16:44:28;15.18;;;8.25;;
21235;SDS011;10775;42.678;26.324;2023-02-11T16:46:54;18.10;;;9.13;;
21235;SDS011;10775;42.678;26.324;2023-02-11T16:49:24;13.52;;;7.32;;
21235;SDS011;10775;42.678;26.324;2023-02-11T16:51:54;13.43;;;7.85;;
21235;SDS011;10775;42.678;26.324;2023-02-11T16:54:22;11.30;;;6.25;;
21235;SDS011;10775;42.678;26.324;2023-02-11T16:56:48;13.48;;;6.07;;
21235;SDS011;10775;42.678;26.324;2023-02-11T16:59:14;13.68;;;7.43;;
21235;SDS011;10775;42.678;26.324;2023-02-11T17:01:40;13.02;;;5.95;;
21235;SDS011;10775;42.678;26.324;2023-02-11T17:04:12;10.45;;;5.18;;
21235;SDS011;10775;42.678;26.324;2023-02-11T17:06:42;12.85;;;6.10;;
21235;SDS011;10775;42.678;26.324;2023-02-11T17:09:09;20.85;;;8.52;;
21235;SDS011;10775;42.678;26.324;2023-02-11T17:11:41;12.35;;;6.45;;
21235;SDS011;10775;42.678;26.324;2023-02-11T17:14:07;11.52;;;5.65;;
21235;SDS011;10775;42.678;26.324;2023-02-11T17:16:32;11.38;;;6.18;;
21235;SDS011;10775;42.678;26.324;2023-02-11T17:18:57;11.75;;;7.28;;
21235;SDS011;10775;42.678;26.324;2023-02-11T17:21:23;10.38;;;5.57;;
21235;SDS011;10775;42.678;26.324;2023-02-11T17:23:49;13.25;;;5.97;;
21235;SDS011;10775;42.678;26.324;2023-02-11T17:26:15;14.52;;;6.65;;
21235;SDS011;10775;42.678;26.324;2023-02-11T17:28:40;12.20;;;6.38;;
21235;SDS011;10775;42.678;26.324;2023-02-11T17:31:06;10.82;;;6.13;;
21235;SDS011;10775;42.678;26.324;2023-02-11T17:33:33;11.15;;;5.47;;
21235;SDS011;10775;42.678;26.324;2023-02-11T17:35:58;13.00;;;6.13;;
21235;SDS011;10775;42.678;26.324;2023-02-11T17:38:24;13.65;;;6.82;;
21235;SDS011;10775;42.678;26.324;2023-02-11T17:40:56;13.13;;;5.82;;